»·PEaware :: N377AM KVGT-KSEZ

N377AM :: KVGT-KSEZ

FLIGHT INFORMATION

Flight Status: Arrived
Operator: Privately registered:
United States
More flights under this callsign
Pilot: Andrew M. (139)
Aircraft: SOCATA TBM-900
(TBM9)
More flights by this aircraft type
Origin: KVGT North Las Vegas
United States
Destination: KSEZ Sedona
United States
More flights between these airports :: More routes between these airports
Route: BLD1 BLD PGS V291 KACEE
File this flight plan on PilotEdge
Remarks: PBN / D2 NAV / RNVD1E2A1 REG / N377AM EET / KZAB0033 RMK / SIMBRIEF
Altitude:
(Current/Filed)
21,000ft
Speed:
(Current/Filed)
318kts
Departed: 26-Jan-19 11:32 AM
Arrived: 26-Jan-19 12:31 PM
Distance/Time
Traveled:
185nm/0:58
Distance/Time
To Go:
Arrived

Flight Plot

Page will automatically refresh every two minutes.

Flight plan parsing failed; only flown route is shown


Map Options




Map Legend


Flown Route
Filed Route
Departure Airport
Arrival Airport
Navaid (VOR, NDB)
Fix

Horizontal Profiles

Position Reports

Time Latitude Longitude Heading Altitude Ground
Speed
26-Jan-19 11:07 36.209806 -115.198766 132 2195ft 0kts
26-Jan-19 11:08 36.209806 -115.198766 132 2195ft 0kts
26-Jan-19 11:09 36.209806 -115.198766 132 2195ft 0kts
26-Jan-19 11:10 36.209806 -115.198766 132 2195ft 0kts
26-Jan-19 11:11 36.209806 -115.198766 132 2195ft 0kts
26-Jan-19 11:12 36.209806 -115.198766 132 2195ft 0kts
26-Jan-19 11:13 36.209806 -115.198766 132 2195ft 0kts
26-Jan-19 11:14 36.209806 -115.198766 132 2195ft 0kts
26-Jan-19 11:15 36.209806 -115.198766 132 2195ft 0kts
26-Jan-19 11:16 36.209806 -115.198766 132 2195ft 0kts
26-Jan-19 11:17 36.209806 -115.198766 132 2195ft 0kts
26-Jan-19 11:18 36.209806 -115.198766 132 2195ft 0kts
26-Jan-19 11:19 36.209806 -115.198766 132 2195ft 0kts
26-Jan-19 11:20 36.209806 -115.198766 132 2195ft 0kts
26-Jan-19 11:21 36.209806 -115.198766 132 2195ft 0kts
26-Jan-19 11:22 36.209803 -115.198762 132 2195ft 0kts
26-Jan-19 11:23 36.209296 -115.197692 137 2192ft 12kts
26-Jan-19 11:24 36.207881 -115.195508 49 2185ft 4kts
26-Jan-19 11:25 36.205919 -115.192765 134 2175ft 11kts
26-Jan-19 11:26 36.204747 -115.191069 70 2167ft 3kts
26-Jan-19 11:27 36.205538 -115.189375 137 2164ft 11kts
26-Jan-19 11:28 36.204303 -115.187349 43 2153ft 0kts
26-Jan-19 11:29 36.204305 -115.187347 49 2153ft 0kts
26-Jan-19 11:30 36.204307 -115.187344 49 2153ft 0kts
26-Jan-19 11:31 36.210366 -115.193856 315 2209ft 110kts
26-Jan-19 11:32 36.227694 -115.228643 267 4073ft 132kts
26-Jan-19 11:33 36.196101 -115.257883 188 5565ft 172kts
26-Jan-19 11:34 36.157421 -115.261668 113 7568ft 164kts
26-Jan-19 11:35 36.136330 -115.210641 110 9565ft 170kts
26-Jan-19 11:36 36.114994 -115.158063 106 11656ft 174kts
26-Jan-19 11:37 36.093173 -115.103825 105 13523ft 180kts
26-Jan-19 11:38 36.069813 -115.045832 106 15041ft 210kts
26-Jan-19 11:39 36.042465 -114.978356 107 15027ft 224kts
26-Jan-19 11:40 36.013917 -114.908204 107 15015ft 230kts
26-Jan-19 11:41 35.988285 -114.836359 98 15015ft 225kts
26-Jan-19 11:42 35.968051 -114.762773 99 15042ft 224kts
26-Jan-19 11:43 35.949087 -114.694141 97 17010ft 204kts
26-Jan-19 11:44 35.931285 -114.629815 95 18988ft 193kts
26-Jan-19 11:45 35.914384 -114.568701 94 20977ft 189kts
26-Jan-19 11:46 35.895259 -114.499711 97 21454ft 235kts
26-Jan-19 11:47 35.874027 -114.423829 96 21442ft 232kts
26-Jan-19 11:48 35.853203 -114.349260 97 21443ft 231kts
26-Jan-19 11:49 35.832599 -114.275539 96 21440ft 223kts
26-Jan-19 11:50 35.812432 -114.203820 96 21431ft 221kts
26-Jan-19 11:51 35.792029 -114.131431 96 21435ft 225kts
26-Jan-19 11:52 35.771101 -114.057273 97 21429ft 233kts
26-Jan-19 11:53 35.749476 -113.980937 97 21419ft 238kts
26-Jan-19 11:54 35.727797 -113.904630 96 21414ft 230kts
26-Jan-19 11:55 35.706764 -113.830656 96 21416ft 226kts
26-Jan-19 11:56 35.686032 -113.758066 96 21417ft 224kts
26-Jan-19 11:57 35.666844 -113.690988 96 21414ft 223kts
26-Jan-19 11:58 35.644580 -113.613433 96 21418ft 223kts
26-Jan-19 11:59 35.623962 -113.541276 94 21416ft 221kts
26-Jan-19 12:00 35.606032 -113.468670 94 21419ft 221kts
26-Jan-19 12:01 35.588156 -113.396320 94 21419ft 222kts
26-Jan-19 12:02 35.570135 -113.323621 94 21419ft 222kts
26-Jan-19 12:03 35.551898 -113.250401 94 21422ft 225kts
26-Jan-19 12:04 35.533404 -113.176218 94 21421ft 228kts
26-Jan-19 12:05 35.514764 -113.101658 94 21421ft 229kts
26-Jan-19 12:06 35.495882 -113.026423 94 21421ft 231kts
26-Jan-19 12:07 35.476855 -112.950785 94 21415ft 232kts
26-Jan-19 12:08 35.457668 -112.874698 94 21403ft 233kts
26-Jan-19 12:09 35.438284 -112.798114 94 21392ft 237kts
26-Jan-19 12:10 35.418180 -112.718573 95 20783ft 254kts
26-Jan-19 12:11 35.397557 -112.637747 96 19366ft 243kts
26-Jan-19 12:12 35.377642 -112.559691 96 17989ft 239kts
26-Jan-19 12:13 35.357983 -112.483012 97 16584ft 231kts
26-Jan-19 12:14 35.327957 -112.414162 124 15182ft 239kts
26-Jan-19 12:15 35.286518 -112.359857 123 15033ft 210kts
26-Jan-19 12:16 35.245154 -112.305390 124 15026ft 219kts
26-Jan-19 12:17 35.203929 -112.251359 124 14691ft 214kts
26-Jan-19 12:18 35.164254 -112.199326 124 13695ft 204kts
26-Jan-19 12:19 35.126192 -112.149501 124 12613ft 200kts
26-Jan-19 12:20 35.090541 -112.102899 126 11082ft 177kts
26-Jan-19 12:21 35.058446 -112.060951 129 9577ft 173kts
26-Jan-19 12:22 35.024186 -112.016386 130 9026ft 178kts
26-Jan-19 12:23 34.990408 -111.972439 130 9020ft 174kts
26-Jan-19 12:24 34.956369 -111.931669 139 8546ft 167kts
26-Jan-19 12:26 34.922886 -111.903824 144 7608ft 130kts
26-Jan-19 12:27 34.894367 -111.883766 148 6457ft 114kts
26-Jan-19 12:28 34.867495 -111.860892 137 6043ft 121kts
26-Jan-19 12:29 34.843538 -111.833108 131 5541ft 101kts
26-Jan-19 12:30 34.836401 -111.804107 67 4996ft 97kts
26-Jan-19 12:31 34.849968 -111.786900 359 4767ft 0kts
26-Jan-19 12:32 34.850730 -111.787048 52 4772ft 2kts
26-Jan-19 12:33 34.851081 -111.786931 315 4775ft 0kts
26-Jan-19 12:34 34.851081 -111.786931 315 4775ft 0kts
26-Jan-19 12:35 34.851081 -111.786931 315 4775ft 0kts
26-Jan-19 12:36 34.851081 -111.786931 315 4775ft 0kts

Navigation Log

Ident Type
Flight plan parsing failed, navigation log unavailable